sensor_id;sensor_type;location;lat;lon;timestamp;temperature;humidity
39503;DHT22;26970;49.900;10.774;2023-03-16T00:01:10;-1.70;99.90
39503;DHT22;26970;49.900;10.774;2023-03-16T00:03:36;-1.60;99.90
39503;DHT22;26970;49.900;10.774;2023-03-16T00:06:02;-1.70;99.90
39503;DHT22;26970;49.900;10.774;2023-03-16T00:08:28;-1.70;99.90
39503;DHT22;26970;49.900;10.774;2023-03-16T00:10:54;-1.70;99.90
39503;DHT22;26970;49.900;10.774;2023-03-16T00:13:22;-1.80;99.90
39503;DHT22;26970;49.900;10.774;2023-03-16T00:15:52;-1.80;99.90
39503;DHT22;26970;49.900;10.774;2023-03-16T00:18:18;-1.80;99.90
39503;DHT22;26970;49.900;10.774;2023-03-16T00:20:48;-1.90;99.90
39503;DHT22;26970;49.900;10.774;2023-03-16T00:23:14;-2.00;99.90
39503;DHT22;26970;49.900;10.774;2023-03-16T00:25:40;-1.90;99.90
39503;DHT22;26970;49.900;10.774;2023-03-16T00:28:06;-2.00;99.90
39503;DHT22;26970;49.900;10.774;2023-03-16T00:30:31;-2.00;99.90
39503;DHT22;26970;49.900;10.774;2023-03-16T00:32:57;-1.90;99.90
39503;DHT22;26970;49.900;10.774;2023-03-16T00:35:24;-1.90;99.90
39503;DHT22;26970;49.900;10.774;2023-03-16T00:37:49;-2.00;99.90
39503;DHT22;26970;49.900;10.774;2023-03-16T00:40:15;-2.00;99.90
39503;DHT22;26970;49.900;10.774;2023-03-16T00:42:41;-2.10;99.90
39503;DHT22;26970;49.900;10.774;2023-03-16T00:45:08;-2.10;99.90
39503;DHT22;26970;49.900;10.774;2023-03-16T00:47:34;-2.10;99.90
39503;DHT22;26970;49.900;10.774;2023-03-16T00:50:01;-2.10;99.90
39503;DHT22;26970;49.900;10.774;2023-03-16T00:52:29;-2.10;99.90
39503;DHT22;26970;49.900;10.774;2023-03-16T00:54:55;-2.00;99.90
39503;DHT22;26970;49.900;10.774;2023-03-16T00:57:22;-2.10;99.90
39503;DHT22;26970;49.900;10.774;2023-03-16T00:59:49;-2.10;99.90
39503;DHT22;26970;49.900;10.774;2023-03-16T01:02:16;-2.00;99.90
39503;DHT22;26970;49.900;10.774;2023-03-16T01:04:42;-2.00;99.90
39503;DHT22;26970;49.900;10.774;2023-03-16T01:07:10;-2.00;99.90
39503;DHT22;26970;49.900;10.774;2023-03-16T01:09:37;-2.00;99.90
39503;DHT22;26970;49.900;10.774;2023-03-16T01:12:11;-2.10;99.90
39503;DHT22;26970;49.900;10.774;2023-03-16T01:14:37;-2.10;99.90
39503;DHT22;26970;49.900;10.774;2023-03-16T01:17:05;-2.10;99.90
39503;DHT22;26970;49.900;10.774;2023-03-16T01:19:33;-2.20;99.90
39503;DHT22;26970;49.900;10.774;2023-03-16T01:22:03;-2.20;99.90
39503;DHT22;26970;49.900;10.774;2023-03-16T01:24:29;-2.20;99.90
39503;DHT22;26970;49.900;10.774;2023-03-16T01:26:56;-2.10;99.90
39503;DHT22;26970;49.900;10.774;2023-03-16T01:29:21;-2.10;99.90
39503;DHT22;26970;49.900;10.774;2023-03-16T01:31:47;-2.00;99.90
39503;DHT22;26970;49.900;10.774;2023-03-16T01:34:14;-2.10;99.90
39503;DHT22;26970;49.900;10.774;2023-03-16T01:36:43;-2.10;99.90
39503;DHT22;26970;49.900;10.774;2023-03-16T01:39:10;-2.00;99.90
39503;DHT22;26970;49.900;10.774;2023-03-16T01:41:37;-2.00;99.90
39503;DHT22;26970;49.900;10.774;2023-03-16T01:44:03;-1.90;99.90
39503;DHT22;26970;49.900;10.774;2023-03-16T01:46:29;-2.00;99.90
39503;DHT22;26970;49.900;10.774;2023-03-16T01:56:58;-2.10;99.90
39503;DHT22;26970;49.900;10.774;2023-03-16T01:59:29;-2.10;99.90
39503;DHT22;26970;49.900;10.774;2023-03-16T02:01:56;-2.10;99.90
39503;DHT22;26970;49.900;10.774;2023-03-16T02:06:56;-2.10;99.90
39503;DHT22;26970;49.900;10.774;2023-03-16T02:09:23;-2.10;99.90
39503;DHT22;26970;49.900;10.774;2023-03-16T02:11:50;-2.10;99.90
39503;DHT22;26970;49.900;10.774;2023-03-16T02:14:16;-2.10;99.90
39503;DHT22;26970;49.900;10.774;2023-03-16T02:16:42;-2.10;99.90
39503;DHT22;26970;49.900;10.774;2023-03-16T02:19:11;-2.10;99.90
39503;DHT22;26970;49.900;10.774;2023-03-16T02:21:49;-2.10;99.90
39503;DHT22;26970;49.900;10.774;2023-03-16T02:24:19;-2.10;99.90
39503;DHT22;26970;49.900;10.774;2023-03-16T02:26:50;-2.10;99.90
39503;DHT22;26970;49.900;10.774;2023-03-16T02:29:52;-2.20;99.90
39503;DHT22;26970;49.900;10.774;2023-03-16T02:32:20;-2.20;99.90
39503;DHT22;26970;49.900;10.774;2023-03-16T02:34:46;-2.20;99.90
39503;DHT22;26970;49.900;10.774;2023-03-16T02:37:12;-2.30;99.90
39503;DHT22;26970;49.900;10.774;2023-03-16T02:39:37;-2.40;99.90
39503;DHT22;26970;49.900;10.774;2023-03-16T02:42:03;-2.40;99.90
39503;DHT22;26970;49.900;10.774;2023-03-16T02:44:36;-2.40;99.90
39503;DHT22;26970;49.900;10.774;2023-03-16T02:47:06;-2.30;99.90
39503;DHT22;26970;49.900;10.774;2023-03-16T02:49:34;-2.40;99.90
39503;DHT22;26970;49.900;10.774;2023-03-16T02:52:01;-2.40;99.90
39503;DHT22;26970;49.900;10.774;2023-03-16T02:54:27;-2.40;99.90
39503;DHT22;26970;49.900;10.774;2023-03-16T02:56:52;-2.30;99.90
39503;DHT22;26970;49.900;10.774;2023-03-16T02:59:18;-2.30;99.90
39503;DHT22;26970;49.900;10.774;2023-03-16T03:01:44;-2.30;99.90
39503;DHT22;26970;49.900;10.774;2023-03-16T03:04:09;-2.30;99.90
39503;DHT22;26970;49.900;10.774;2023-03-16T03:06:35;-2.30;99.90
39503;DHT22;26970;49.900;10.774;2023-03-16T03:09:01;-2.40;99.90
39503;DHT22;26970;49.900;10.774;2023-03-16T03:11:27;-2.40;99.90
39503;DHT22;26970;49.900;10.774;2023-03-16T03:13:54;-2.40;99.90
39503;DHT22;26970;49.900;10.774;2023-03-16T03:16:19;-2.50;99.90
39503;DHT22;26970;49.900;10.774;2023-03-16T03:18:46;-2.50;99.90
39503;DHT22;26970;49.900;10.774;2023-03-16T03:21:11;-2.40;99.90
39503;DHT22;26970;49.900;10.774;2023-03-16T03:23:37;-2.40;99.90
39503;DHT22;26970;49.900;10.774;2023-03-16T03:26:03;-2.40;99.90
39503;DHT22;26970;49.900;10.774;2023-03-16T03:28:29;-2.40;99.90
39503;DHT22;26970;49.900;10.774;2023-03-16T03:30:55;-2.40;99.90
39503;DHT22;26970;49.900;10.774;2023-03-16T03:33:21;-2.30;99.90
39503;DHT22;26970;49.900;10.774;2023-03-16T03:35:54;-2.30;99.90
39503;DHT22;26970;49.900;10.774;2023-03-16T03:38:23;-2.20;99.90
39503;DHT22;26970;49.900;10.774;2023-03-16T03:40:52;-2.20;99.90
39503;DHT22;26970;49.900;10.774;2023-03-16T03:43:19;-2.10;99.90
39503;DHT22;26970;49.900;10.774;2023-03-16T03:45:45;-2.10;99.90
39503;DHT22;26970;49.900;10.774;2023-03-16T03:48:10;-2.10;99.90
39503;DHT22;26970;49.900;10.774;2023-03-16T03:50:36;-2.10;99.90
39503;DHT22;26970;49.900;10.774;2023-03-16T03:53:05;-2.10;99.90
39503;DHT22;26970;49.900;10.774;2023-03-16T03:55:31;-2.10;99.90
39503;DHT22;26970;49.900;10.774;2023-03-16T03:57:57;-2.00;99.90
39503;DHT22;26970;49.900;10.774;2023-03-16T04:00:22;-1.90;99.90
39503;DHT22;26970;49.900;10.774;2023-03-16T04:02:48;-1.90;99.90
39503;DHT22;26970;49.900;10.774;2023-03-16T04:05:14;-1.90;99.90
39503;DHT22;26970;49.900;10.774;2023-03-16T04:07:39;-1.90;99.90
39503;DHT22;26970;49.900;10.774;2023-03-16T04:10:06;-1.70;99.90
39503;DHT22;26970;49.900;10.774;2023-03-16T04:12:32;-1.90;99.90
39503;DHT22;26970;49.900;10.774;2023-03-16T04:14:58;-1.80;99.90
39503;DHT22;26970;49.900;10.774;2023-03-16T04:17:23;-1.80;99.90
39503;DHT22;26970;49.900;10.774;2023-03-16T04:19:49;-1.80;99.90
39503;DHT22;26970;49.900;10.774;2023-03-16T04:22:15;-1.80;99.90
39503;DHT22;26970;49.900;10.774;2023-03-16T04:24:41;-1.70;99.90
39503;DHT22;26970;49.900;10.774;2023-03-16T04:27:08;-1.70;99.90
39503;DHT22;26970;49.900;10.774;2023-03-16T04:29:33;-1.70;99.90
39503;DHT22;26970;49.900;10.774;2023-03-16T04:31:59;-1.60;99.90
39503;DHT22;26970;49.900;10.774;2023-03-16T04:34:25;-1.60;99.90
39503;DHT22;26970;49.900;10.774;2023-03-16T04:36:51;-1.60;99.90
39503;DHT22;26970;49.900;10.774;2023-03-16T04:39:18;-1.70;99.90
39503;DHT22;26970;49.900;10.774;2023-03-16T04:41:43;-1.60;99.90
39503;DHT22;26970;49.900;10.774;2023-03-16T04:44:09;-1.60;99.90
39503;DHT22;26970;49.900;10.774;2023-03-16T04:46:35;-1.60;99.90
39503;DHT22;26970;49.900;10.774;2023-03-16T04:49:00;-1.60;99.90
39503;DHT22;26970;49.900;10.774;2023-03-16T04:51:26;-1.60;99.90
39503;DHT22;26970;49.900;10.774;2023-03-16T04:53:52;-1.60;99.90
39503;DHT22;26970;49.900;10.774;2023-03-16T04:56:18;-1.60;99.90
39503;DHT22;26970;49.900;10.774;2023-03-16T04:58:45;-1.10;99.90
39503;DHT22;26970;49.900;10.774;2023-03-16T05:01:11;-1.50;99.90
39503;DHT22;26970;49.900;10.774;2023-03-16T05:03:37;-1.50;99.90
39503;DHT22;26970;49.900;10.774;2023-03-16T05:06:03;-1.50;99.90
39503;DHT22;26970;49.900;10.774;2023-03-16T05:08:29;-1.50;99.90
39503;DHT22;26970;49.900;10.774;2023-03-16T05:10:56;-1.40;99.90
39503;DHT22;26970;49.900;10.774;2023-03-16T05:13:22;-1.40;99.90
39503;DHT22;26970;49.900;10.774;2023-03-16T05:15:48;-1.40;99.90
39503;DHT22;26970;49.900;10.774;2023-03-16T05:18:14;-1.50;99.90
39503;DHT22;26970;49.900;10.774;2023-03-16T05:20:40;-1.50;99.90
39503;DHT22;26970;49.900;10.774;2023-03-16T05:23:06;-1.50;99.90
39503;DHT22;26970;49.900;10.774;2023-03-16T05:25:33;-1.50;99.90
39503;DHT22;26970;49.900;10.774;2023-03-16T05:27:59;-1.50;99.90
39503;DHT22;26970;49.900;10.774;2023-03-16T05:30:24;-1.50;99.90
39503;DHT22;26970;49.900;10.774;2023-03-16T05:32:51;-1.50;99.90
39503;DHT22;26970;49.900;10.774;2023-03-16T05:35:16;-1.50;99.90
39503;DHT22;26970;49.900;10.774;2023-03-16T05:37:43;-1.50;99.90
39503;DHT22;26970;49.900;10.774;2023-03-16T05:40:13;-1.40;99.90
39503;DHT22;26970;49.900;10.774;2023-03-16T05:42:43;-1.40;99.90
39503;DHT22;26970;49.900;10.774;2023-03-16T05:45:10;-1.40;99.90
39503;DHT22;26970;49.900;10.774;2023-03-16T05:47:36;-1.40;99.90
39503;DHT22;26970;49.900;10.774;2023-03-16T05:50:03;-1.40;99.90
39503;DHT22;26970;49.900;10.774;2023-03-16T05:52:29;-1.50;99.90
39503;DHT22;26970;49.900;10.774;2023-03-16T05:54:55;-1.40;99.90
39503;DHT22;26970;49.900;10.774;2023-03-16T05:57:20;-1.40;99.90
39503;DHT22;26970;49.900;10.774;2023-03-16T05:59:46;-1.40;99.90
39503;DHT22;26970;49.900;10.774;2023-03-16T06:02:13;-1.30;99.90
39503;DHT22;26970;49.900;10.774;2023-03-16T06:04:38;-1.30;99.90
39503;DHT22;26970;49.900;10.774;2023-03-16T06:07:04;-1.30;99.90
39503;DHT22;26970;49.900;10.774;2023-03-16T06:09:29;-1.20;99.90
39503;DHT22;26970;49.900;10.774;2023-03-16T06:11:55;-1.20;99.90
39503;DHT22;26970;49.900;10.774;2023-03-16T06:14:21;-1.20;99.90
39503;DHT22;26970;49.900;10.774;2023-03-16T06:16:48;-1.10;99.90
39503;DHT22;26970;49.900;10.774;2023-03-16T06:19:13;-1.10;99.90
39503;DHT22;26970;49.900;10.774;2023-03-16T06:21:39;-1.00;99.90
39503;DHT22;26970;49.900;10.774;2023-03-16T06:24:05;-1.00;99.90
39503;DHT22;26970;49.900;10.774;2023-03-16T06:26:32;-1.00;99.90
39503;DHT22;26970;49.900;10.774;2023-03-16T06:28:58;-1.00;99.90
39503;DHT22;26970;49.900;10.774;2023-03-16T06:31:23;-1.00;99.90
39503;DHT22;26970;49.900;10.774;2023-03-16T06:33:49;-1.00;99.90
39503;DHT22;26970;49.900;10.774;2023-03-16T06:36:14;-0.80;99.90
39503;DHT22;26970;49.900;10.774;2023-03-16T06:38:40;-0.80;99.90
39503;DHT22;26970;49.900;10.774;2023-03-16T06:41:06;-0.80;99.90
39503;DHT22;26970;49.900;10.774;2023-03-16T06:43:31;-0.80;99.90
39503;DHT22;26970;49.900;10.774;2023-03-16T06:45:57;-0.70;99.90
39503;DHT22;26970;49.900;10.774;2023-03-16T06:48:23;-0.80;99.90
39503;DHT22;26970;49.900;10.774;2023-03-16T06:50:48;-0.70;99.90
39503;DHT22;26970;49.900;10.774;2023-03-16T06:53:14;-0.70;99.90
39503;DHT22;26970;49.900;10.774;2023-03-16T06:55:40;-0.60;99.90
39503;DHT22;26970;49.900;10.774;2023-03-16T06:58:06;-0.70;99.90
39503;DHT22;26970;49.900;10.774;2023-03-16T07:00:31;-0.60;99.90
39503;DHT22;26970;49.900;10.774;2023-03-16T07:02:59;-0.30;99.90
39503;DHT22;26970;49.900;10.774;2023-03-16T07:05:26;-0.60;99.90
39503;DHT22;26970;49.900;10.774;2023-03-16T07:07:52;-0.60;99.90
39503;DHT22;26970;49.900;10.774;2023-03-16T07:10:18;-0.70;99.90
39503;DHT22;26970;49.900;10.774;2023-03-16T07:12:44;-0.70;99.90
39503;DHT22;26970;49.900;10.774;2023-03-16T07:15:11;-0.70;99.90
39503;DHT22;26970;49.900;10.774;2023-03-16T07:17:37;-0.60;99.90
39503;DHT22;26970;49.900;10.774;2023-03-16T07:20:03;-0.70;99.90
39503;DHT22;26970;49.900;10.774;2023-03-16T07:22:31;-0.70;99.90
39503;DHT22;26970;49.900;10.774;2023-03-16T07:24:57;-0.70;99.90
39503;DHT22;26970;49.900;10.774;2023-03-16T07:27:23;-0.70;99.90
39503;DHT22;26970;49.900;10.774;2023-03-16T07:29:49;-0.60;99.90
39503;DHT22;26970;49.900;10.774;2023-03-16T07:32:17;-0.50;99.90
39503;DHT22;26970;49.900;10.774;2023-03-16T07:34:43;-0.50;99.90
39503;DHT22;26970;49.900;10.774;2023-03-16T07:37:09;-0.50;99.90
39503;DHT22;26970;49.900;10.774;2023-03-16T07:39:35;-0.40;99.90
39503;DHT22;26970;49.900;10.774;2023-03-16T07:42:01;-0.30;99.90
39503;DHT22;26970;49.900;10.774;2023-03-16T07:44:27;-0.30;99.90
39503;DHT22;26970;49.900;10.774;2023-03-16T07:46:53;-0.10;99.90
39503;DHT22;26970;49.900;10.774;2023-03-16T07:49:18;-0.20;99.90
39503;DHT22;26970;49.900;10.774;2023-03-16T07:51:44;-0.20;99.90
39503;DHT22;26970;49.900;10.774;2023-03-16T07:54:10;-0.20;99.90
39503;DHT22;26970;49.900;10.774;2023-03-16T07:56:36;-0.10;99.90
39503;DHT22;26970;49.900;10.774;2023-03-16T07:59:02;-0.10;99.90
39503;DHT22;26970;49.900;10.774;2023-03-16T08:01:28;-0.10;99.90
39503;DHT22;26970;49.900;10.774;2023-03-16T08:03:53;0.10;99.90
39503;DHT22;26970;49.900;10.774;2023-03-16T08:06:19;0.30;99.90
39503;DHT22;26970;49.900;10.774;2023-03-16T08:08:46;0.40;99.90
39503;DHT22;26970;49.900;10.774;2023-03-16T08:11:12;0.50;99.90
39503;DHT22;26970;49.900;10.774;2023-03-16T08:13:37;0.80;99.90
39503;DHT22;26970;49.900;10.774;2023-03-16T08:16:03;0.90;99.90
39503;DHT22;26970;49.900;10.774;2023-03-16T08:18:34;1.00;99.90
39503;DHT22;26970;49.900;10.774;2023-03-16T08:21:01;1.10;99.90
39503;DHT22;26970;49.900;10.774;2023-03-16T08:23:27;1.20;99.90
39503;DHT22;26970;49.900;10.774;2023-03-16T08:25:55;1.40;99.90
39503;DHT22;26970;49.900;10.774;2023-03-16T08:28:22;1.50;99.90
39503;DHT22;26970;49.900;10.774;2023-03-16T08:30:51;1.70;99.90
39503;DHT22;26970;49.900;10.774;2023-03-16T08:33:18;1.60;99.90
39503;DHT22;26970;49.900;10.774;2023-03-16T08:35:46;1.70;99.90
39503;DHT22;26970;49.900;10.774;2023-03-16T08:38:13;1.70;99.90
39503;DHT22;26970;49.900;10.774;2023-03-16T08:40:39;1.70;99.90
39503;DHT22;26970;49.900;10.774;2023-03-16T08:43:14;1.80;99.90
39503;DHT22;26970;49.900;10.774;2023-03-16T08:45:40;1.80;99.90
39503;DHT22;26970;49.900;10.774;2023-03-16T08:48:06;2.00;99.90
39503;DHT22;26970;49.900;10.774;2023-03-16T08:50:32;2.00;99.90
39503;DHT22;26970;49.900;10.774;2023-03-16T08:52:58;1.90;99.90
39503;DHT22;26970;49.900;10.774;2023-03-16T08:55:25;1.90;99.90
39503;DHT22;26970;49.900;10.774;2023-03-16T08:57:51;2.00;99.90
39503;DHT22;26970;49.900;10.774;2023-03-16T09:00:16;2.20;99.90
39503;DHT22;26970;49.900;10.774;2023-03-16T09:02:42;2.20;99.90
39503;DHT22;26970;49.900;10.774;2023-03-16T09:05:09;2.20;99.90
39503;DHT22;26970;49.900;10.774;2023-03-16T09:07:36;2.60;99.90
39503;DHT22;26970;49.900;10.774;2023-03-16T09:10:04;2.40;99.90
39503;DHT22;26970;49.900;10.774;2023-03-16T09:12:33;2.40;99.90
39503;DHT22;26970;49.900;10.774;2023-03-16T09:14:59;2.50;99.90
39503;DHT22;26970;49.900;10.774;2023-03-16T09:17:25;2.50;99.90
39503;DHT22;26970;49.900;10.774;2023-03-16T09:19:51;2.60;99.90
39503;DHT22;26970;49.900;10.774;2023-03-16T09:22:18;2.60;99.90
39503;DHT22;26970;49.900;10.774;2023-03-16T09:24:44;2.60;99.90
39503;DHT22;26970;49.900;10.774;2023-03-16T09:27:09;2.70;99.90
39503;DHT22;26970;49.900;10.774;2023-03-16T09:29:35;2.90;99.90
39503;DHT22;26970;49.900;10.774;2023-03-16T09:32:00;3.00;99.90
39503;DHT22;26970;49.900;10.774;2023-03-16T09:34:27;3.00;99.90
39503;DHT22;26970;49.900;10.774;2023-03-16T09:36:53;3.10;99.90
39503;DHT22;26970;49.900;10.774;2023-03-16T09:39:19;3.10;99.90
39503;DHT22;26970;49.900;10.774;2023-03-16T09:41:58;3.10;99.90
39503;DHT22;26970;49.900;10.774;2023-03-16T09:47:26;3.30;99.90
39503;DHT22;26970;49.900;10.774;2023-03-16T09:49:59;3.30;99.90
39503;DHT22;26970;49.900;10.774;2023-03-16T09:52:34;3.40;99.90
39503;DHT22;26970;49.900;10.774;2023-03-16T09:55:25;3.60;99.90
39503;DHT22;26970;49.900;10.774;2023-03-16T09:57:52;3.70;99.90
39503;DHT22;26970;49.900;10.774;2023-03-16T10:01:01;3.90;99.90
39503;DHT22;26970;49.900;10.774;2023-03-16T10:06:03;3.90;99.90
39503;DHT22;26970;49.900;10.774;2023-03-16T10:08:39;3.90;99.90
39503;DHT22;26970;49.900;10.774;2023-03-16T10:11:36;4.00;99.90
39503;DHT22;26970;49.900;10.774;2023-03-16T10:19:42;4.10;99.90
39503;DHT22;26970;49.900;10.774;2023-03-16T10:22:20;4.40;99.90
39503;DHT22;26970;49.900;10.774;2023-03-16T10:27:30;4.20;99.90
39503;DHT22;26970;49.900;10.774;2023-03-16T10:29:56;4.30;99.90
39503;DHT22;26970;49.900;10.774;2023-03-16T10:32:22;4.60;99.90
39503;DHT22;26970;49.900;10.774;2023-03-16T10:35:02;4.70;99.90
39503;DHT22;26970;49.900;10.774;2023-03-16T10:37:31;4.90;99.90
39503;DHT22;26970;49.900;10.774;2023-03-16T10:39:58;4.90;99.90
39503;DHT22;26970;49.900;10.774;2023-03-16T10:42:25;4.90;99.90
39503;DHT22;26970;49.900;10.774;2023-03-16T10:45:00;5.00;99.90
39503;DHT22;26970;49.900;10.774;2023-03-16T10:47:31;5.10;99.90
39503;DHT22;26970;49.900;10.774;2023-03-16T10:49:57;5.20;99.90
39503;DHT22;26970;49.900;10.774;2023-03-16T10:58:10;5.30;99.90
39503;DHT22;26970;49.900;10.774;2023-03-16T11:00:46;5.50;99.90
39503;DHT22;26970;49.900;10.774;2023-03-16T11:03:26;5.70;99.90
39503;DHT22;26970;49.900;10.774;2023-03-16T11:06:01;5.80;99.90
39503;DHT22;26970;49.900;10.774;2023-03-16T11:08:35;5.70;99.90
39503;DHT22;26970;49.900;10.774;2023-03-16T11:11:10;5.90;99.90
39503;DHT22;26970;49.900;10.774;2023-03-16T11:13:43;5.90;99.90
39503;DHT22;26970;49.900;10.774;2023-03-16T11:16:36;5.80;99.90
39503;DHT22;26970;49.900;10.774;2023-03-16T11:19:16;6.00;99.90
39503;DHT22;26970;49.900;10.774;2023-03-16T11:21:50;6.20;99.90
39503;DHT22;26970;49.900;10.774;2023-03-16T11:24:36;6.30;99.90
39503;DHT22;26970;49.900;10.774;2023-03-16T11:27:05;6.40;99.90
39503;DHT22;26970;49.900;10.774;2023-03-16T11:29:46;6.30;99.90
39503;DHT22;26970;49.900;10.774;2023-03-16T11:32:19;6.30;99.90
39503;DHT22;26970;49.900;10.774;2023-03-16T11:34:46;6.40;99.90
39503;DHT22;26970;49.900;10.774;2023-03-16T11:45:34;6.30;99.90
39503;DHT22;26970;49.900;10.774;2023-03-16T11:51:23;6.40;99.90
39503;DHT22;26970;49.900;10.774;2023-03-16T11:54:30;6.40;99.90
39503;DHT22;26970;49.900;10.774;2023-03-16T12:02:32;6.20;99.90
39503;DHT22;26970;49.900;10.774;2023-03-16T12:10:57;6.60;99.90
39503;DHT22;26970;49.900;10.774;2023-03-16T12:14:04;6.70;99.90
39503;DHT22;26970;49.900;10.774;2023-03-16T12:16:39;6.70;99.90
39503;DHT22;26970;49.900;10.774;2023-03-16T12:19:14;6.80;99.90
39503;DHT22;26970;49.900;10.774;2023-03-16T12:21:44;7.00;99.90
39503;DHT22;26970;49.900;10.774;2023-03-16T12:24:27;7.10;99.90
39503;DHT22;26970;49.900;10.774;2023-03-16T12:26:56;7.10;99.90
39503;DHT22;26970;49.900;10.774;2023-03-16T12:29:51;7.10;99.90
39503;DHT22;26970;49.900;10.774;2023-03-16T12:49:22;7.20;99.90
39503;DHT22;26970;49.900;10.774;2023-03-16T12:52:02;7.20;99.90
39503;DHT22;26970;49.900;10.774;2023-03-16T12:54:28;7.30;99.90
39503;DHT22;26970;49.900;10.774;2023-03-16T12:57:23;7.10;99.90
39503;DHT22;26970;49.900;10.774;2023-03-16T12:59:54;7.10;99.90
39503;DHT22;26970;49.900;10.774;2023-03-16T13:02:29;7.20;99.90
39503;DHT22;26970;49.900;10.774;2023-03-16T13:05:01;7.20;99.90
39503;DHT22;26970;49.900;10.774;2023-03-16T13:07:32;7.30;99.90
39503;DHT22;26970;49.900;10.774;2023-03-16T13:10:09;7.40;99.90
39503;DHT22;26970;49.900;10.774;2023-03-16T13:12:37;7.30;99.90
39503;DHT22;26970;49.900;10.774;2023-03-16T13:15:35;7.40;99.90
39503;DHT22;26970;49.900;10.774;2023-03-16T13:24:21;7.60;99.90
39503;DHT22;26970;49.900;10.774;2023-03-16T13:26:16;7.60;99.90
39503;DHT22;26970;49.900;10.774;2023-03-16T13:28:50;7.60;99.90
39503;DHT22;26970;49.900;10.774;2023-03-16T13:31:36;7.70;99.90
39503;DHT22;26970;49.900;10.774;2023-03-16T13:34:02;7.70;99.90
39503;DHT22;26970;49.900;10.774;2023-03-16T13:36:31;7.70;99.90
39503;DHT22;26970;49.900;10.774;2023-03-16T13:39:14;7.60;99.90
39503;DHT22;26970;49.900;10.774;2023-03-16T13:41:40;7.50;99.90
39503;DHT22;26970;49.900;10.774;2023-03-16T13:44:17;7.40;99.90
39503;DHT22;26970;49.900;10.774;2023-03-16T13:46:47;7.30;99.90
39503;DHT22;26970;49.900;10.774;2023-03-16T13:49:13;7.30;99.90
39503;DHT22;26970;49.900;10.774;2023-03-16T13:51:38;7.30;99.90
39503;DHT22;26970;49.900;10.774;2023-03-16T13:54:26;7.40;99.90
39503;DHT22;26970;49.900;10.774;2023-03-16T13:56:55;7.50;99.90
39503;DHT22;26970;49.900;10.774;2023-03-16T13:59:22;7.50;99.90
39503;DHT22;26970;49.900;10.774;2023-03-16T14:01:53;7.50;99.90
39503;DHT22;26970;49.900;10.774;2023-03-16T14:04:20;7.50;99.90
39503;DHT22;26970;49.900;10.774;2023-03-16T14:06:57;7.50;99.90
39503;DHT22;26970;49.900;10.774;2023-03-16T14:09:25;7.50;99.90
39503;DHT22;26970;49.900;10.774;2023-03-16T14:11:53;7.40;99.90
39503;DHT22;26970;49.900;10.774;2023-03-16T14:14:37;7.40;99.90
39503;DHT22;26970;49.900;10.774;2023-03-16T14:17:10;7.60;99.90
39503;DHT22;26970;49.900;10.774;2023-03-16T14:19:46;7.60;99.90
39503;DHT22;26970;49.900;10.774;2023-03-16T14:22:22;7.70;99.90
39503;DHT22;26970;49.900;10.774;2023-03-16T14:24:54;7.70;99.90
39503;DHT22;26970;49.900;10.774;2023-03-16T14:30:17;7.70;99.90
39503;DHT22;26970;49.900;10.774;2023-03-16T14:33:02;7.70;99.90
39503;DHT22;26970;49.900;10.774;2023-03-16T14:35:42;7.70;99.90
39503;DHT22;26970;49.900;10.774;2023-03-16T14:38:31;7.70;99.90
39503;DHT22;26970;49.900;10.774;2023-03-16T14:43:43;7.80;99.90
39503;DHT22;26970;49.900;10.774;2023-03-16T14:46:26;7.70;99.90
39503;DHT22;26970;49.900;10.774;2023-03-16T14:49:17;7.80;99.90
39503;DHT22;26970;49.900;10.774;2023-03-16T14:51:46;7.80;99.90
39503;DHT22;26970;49.900;10.774;2023-03-16T14:54:14;7.70;99.90
39503;DHT22;26970;49.900;10.774;2023-03-16T14:56:42;7.70;99.90
39503;DHT22;26970;49.900;10.774;2023-03-16T14:59:08;7.60;99.90
39503;DHT22;26970;49.900;10.774;2023-03-16T15:01:34;7.60;99.90
39503;DHT22;26970;49.900;10.774;2023-03-16T15:04:01;8.20;99.90
39503;DHT22;26970;49.900;10.774;2023-03-16T15:06:26;7.60;99.90
39503;DHT22;26970;49.900;10.774;2023-03-16T15:08:52;7.60;99.90
39503;DHT22;26970;49.900;10.774;2023-03-16T15:11:19;7.60;99.90
39503;DHT22;26970;49.900;10.774;2023-03-16T15:13:47;7.60;99.90
39503;DHT22;26970;49.900;10.774;2023-03-16T15:16:13;7.60;99.90
39503;DHT22;26970;49.900;10.774;2023-03-16T15:18:39;7.60;99.90
39503;DHT22;26970;49.900;10.774;2023-03-16T15:21:17;7.60;99.90
39503;DHT22;26970;49.900;10.774;2023-03-16T15:23:44;7.60;99.90
39503;DHT22;26970;49.900;10.774;2023-03-16T15:26:12;7.60;99.90
39503;DHT22;26970;49.900;10.774;2023-03-16T15:28:38;7.60;99.90
39503;DHT22;26970;49.900;10.774;2023-03-16T15:31:04;7.60;99.90
39503;DHT22;26970;49.900;10.774;2023-03-16T15:33:31;7.60;99.90
39503;DHT22;26970;49.900;10.774;2023-03-16T15:35:58;7.60;99.90
39503;DHT22;26970;49.900;10.774;2023-03-16T15:40:52;7.50;99.90
39503;DHT22;26970;49.900;10.774;2023-03-16T15:43:21;7.40;99.90
39503;DHT22;26970;49.900;10.774;2023-03-16T15:45:47;7.40;99.90
39503;DHT22;26970;49.900;10.774;2023-03-16T15:48:14;7.40;99.90
39503;DHT22;26970;49.900;10.774;2023-03-16T15:50:46;7.40;99.90
39503;DHT22;26970;49.900;10.774;2023-03-16T15:53:31;7.40;99.90
39503;DHT22;26970;49.900;10.774;2023-03-16T15:56:19;7.50;99.90
39503;DHT22;26970;49.900;10.774;2023-03-16T15:58:47;7.40;99.90
39503;DHT22;26970;49.900;10.774;2023-03-16T16:01:24;7.50;99.90
39503;DHT22;26970;49.900;10.774;2023-03-16T16:03:52;7.40;99.90
39503;DHT22;26970;49.900;10.774;2023-03-16T16:06:19;7.50;99.90
39503;DHT22;26970;49.900;10.774;2023-03-16T16:08:44;7.40;99.90
39503;DHT22;26970;49.900;10.774;2023-03-16T16:11:30;7.30;99.90
39503;DHT22;26970;49.900;10.774;2023-03-16T16:13:57;7.30;99.90
39503;DHT22;26970;49.900;10.774;2023-03-16T16:16:26;7.20;99.90
39503;DHT22;26970;49.900;10.774;2023-03-16T16:18:52;7.20;99.90
39503;DHT22;26970;49.900;10.774;2023-03-16T16:21:20;7.20;99.90
39503;DHT22;26970;49.900;10.774;2023-03-16T16:23:47;7.20;99.90
39503;DHT22;26970;49.900;10.774;2023-03-16T16:26:34;7.10;99.90
39503;DHT22;26970;49.900;10.774;2023-03-16T16:29:24;7.10;99.90
39503;DHT22;26970;49.900;10.774;2023-03-16T16:31:51;7.00;99.90
39503;DHT22;26970;49.900;10.774;2023-03-16T16:34:19;7.00;99.90
39503;DHT22;26970;49.900;10.774;2023-03-16T16:36:46;7.00;99.90
39503;DHT22;26970;49.900;10.774;2023-03-16T16:39:12;7.00;99.90
39503;DHT22;26970;49.900;10.774;2023-03-16T16:41:39;6.90;99.90
39503;DHT22;26970;49.900;10.774;2023-03-16T16:44:05;6.90;99.90
39503;DHT22;26970;49.900;10.774;2023-03-16T16:46:39;6.80;99.90
39503;DHT22;26970;49.900;10.774;2023-03-16T16:49:14;6.80;99.90
39503;DHT22;26970;49.900;10.774;2023-03-16T16:51:41;6.80;99.90
39503;DHT22;26970;49.900;10.774;2023-03-16T16:54:16;6.70;99.90
39503;DHT22;26970;49.900;10.774;2023-03-16T16:56:43;6.70;99.90
39503;DHT22;26970;49.900;10.774;2023-03-16T16:59:13;6.60;99.90